createdAt,value
2022-11-30T00:00:10.279Z,100929.50
2022-11-30T00:05:13.146Z,100927.00
2022-11-30T00:10:15.402Z,100931.22
2022-11-30T00:15:17.512Z,100933.81
2022-11-30T00:20:18.534Z,100934.41
2022-11-30T00:25:21.393Z,100939.72
2022-11-30T00:30:22.207Z,100930.34
2022-11-30T00:35:22.979Z,100938.97
2022-11-30T00:40:25.128Z,100940.75
2022-11-30T00:45:25.900Z,100945.09
2022-11-30T00:50:26.736Z,100940.78
2022-11-30T00:55:30.462Z,100939.84
2022-11-30T01:00:31.408Z,100938.16
2022-11-30T01:05:34.442Z,100935.53
2022-11-30T01:10:37.890Z,100932.88
2022-11-30T01:15:40.182Z,100940.66
2022-11-30T01:20:42.430Z,100931.25
2022-11-30T01:25:54.717Z,100930.44
2022-11-30T01:30:59.724Z,100929.47
2022-11-30T01:36:02.918Z,100932.03
2022-11-30T01:41:07.833Z,100927.78
2022-11-30T01:46:29.356Z,100932.03
2022-11-30T01:51:35.409Z,100937.22
2022-11-30T01:56:38.669Z,100935.47
2022-11-30T02:01:39.479Z,100937.13
2022-11-30T02:06:40.480Z,100940.50
2022-11-30T02:11:42.679Z,100940.38
2022-11-30T02:16:53.413Z,100944.66
2022-11-30T02:22:00.888Z,100944.59
2022-11-30T02:27:14.823Z,100950.38
2022-11-30T02:32:23.022Z,100951.28
2022-11-30T02:37:26.498Z,100953.84
2022-11-30T02:42:27.297Z,100952.97
2022-11-30T02:47:37.439Z,100949.59
2022-11-30T02:52:38.452Z,100946.03
2022-11-30T02:57:39.261Z,100954.44
2022-11-30T03:02:42.425Z,100958.91
2022-11-30T03:07:43.413Z,100961.31
2022-11-30T03:12:44.228Z,100967.38
2022-11-30T03:17:46.391Z,100967.31
2022-11-30T03:22:47.187Z,100973.22
2022-11-30T03:27:48.001Z,100976.50
2022-11-30T03:32:51.744Z,100985.97
2022-11-30T03:37:52.502Z,100974.53
2022-11-30T03:42:53.282Z,100971.88
2022-11-30T03:47:55.437Z,100980.41
2022-11-30T03:52:56.248Z,100985.47
2022-11-30T03:57:57.054Z,100986.31
2022-11-30T04:02:59.208Z,100981.94
2022-11-30T04:08:00.090Z,100994.72
2022-11-30T04:13:00.958Z,100988.84
2022-11-30T04:18:03.154Z,100987.84
2022-11-30T04:23:03.920Z,100986.00
2022-11-30T04:28:04.731Z,100990.03
2022-11-30T04:33:07.229Z,100994.34
2022-11-30T04:38:08.033Z,100988.28
2022-11-30T04:43:09.451Z,100988.19
2022-11-30T04:48:11.593Z,100983.88
2022-11-30T04:53:12.873Z,100985.59
2022-11-30T04:58:13.645Z,100996.78
2022-11-30T05:03:15.761Z,101003.66
2022-11-30T05:08:16.532Z,101001.06
2022-11-30T05:13:17.320Z,101010.53
2022-11-30T05:18:19.450Z,101017.47
2022-11-30T05:23:21.311Z,101018.25
2022-11-30T05:28:22.265Z,101017.47
2022-11-30T05:33:24.382Z,101029.34
2022-11-30T05:38:25.200Z,101031.59
2022-11-30T05:43:26.018Z,101032.56
2022-11-30T05:48:28.344Z,101046.00
2022-11-30T05:53:29.132Z,101050.38
2022-11-30T05:58:29.964Z,101039.97
2022-11-30T06:03:33.828Z,101045.88
2022-11-30T06:08:34.614Z,101056.69
2022-11-30T06:13:35.608Z,101063.66
2022-11-30T06:18:38.350Z,101063.25
2022-11-30T06:23:39.315Z,101058.19
2022-11-30T06:28:45.355Z,101062.25
2022-11-30T06:33:50.122Z,101053.59
2022-11-30T06:38:51.270Z,101067.16
2022-11-30T06:43:52.198Z,101071.59
2022-11-30T06:48:54.463Z,101072.16
2022-11-30T06:53:55.280Z,101073.19
2022-11-30T06:59:20.716Z,101092.88
2022-11-30T07:04:22.999Z,101095.50
2022-11-30T07:09:23.883Z,101098.81
2022-11-30T07:14:25.607Z,101109.94
2022-11-30T07:19:27.838Z,101110.06
2022-11-30T07:24:48.288Z,101110.09
2022-11-30T07:29:51.540Z,101120.41
2022-11-30T07:34:53.893Z,101122.38
2022-11-30T07:39:55.208Z,101120.44
2022-11-30T07:44:59.005Z,101125.97
2022-11-30T07:50:01.585Z,101121.69
2022-11-30T07:55:02.388Z,101121.00
2022-11-30T08:00:03.724Z,101118.91
2022-11-30T08:05:14.458Z,101133.03
2022-11-30T08:10:15.381Z,101119.53
2022-11-30T08:15:21.051Z,101113.66
2022-11-30T08:20:24.297Z,101114.41
2022-11-30T08:25:25.222Z,101116.34
2022-11-30T08:30:29.399Z,101133.88
2022-11-30T08:35:33.306Z,101128.88
2022-11-30T08:40:34.141Z,101137.41
2022-11-30T08:45:35.042Z,101141.69
2022-11-30T08:50:37.705Z,101149.44
2022-11-30T08:55:38.695Z,101139.94
2022-11-30T09:00:39.465Z,101146.97
2022-11-30T09:05:41.615Z,101156.31
2022-11-30T09:10:42.384Z,101160.91
2022-11-30T09:15:43.295Z,101154.75
2022-11-30T09:20:45.444Z,101151.31
2022-11-30T09:25:46.277Z,101155.56
2022-11-30T09:30:47.259Z,101157.88
2022-11-30T09:35:57.745Z,101163.78
2022-11-30T09:41:00.285Z,101156.13
2022-11-30T09:46:04.597Z,101154.34
2022-11-30T09:51:14.980Z,101156.22
2022-11-30T09:56:23.912Z,101143.25
2022-11-30T10:01:32.853Z,101149.13
2022-11-30T10:06:49.769Z,101144.16
2022-11-30T10:11:59.739Z,101145.69
2022-11-30T10:17:13.100Z,101142.31
2022-11-30T10:22:22.518Z,101148.47
2022-11-30T10:27:40.703Z,101139.81
2022-11-30T10:32:45.286Z,101148.38
2022-11-30T10:37:48.651Z,101138.94
2022-11-30T10:42:54.152Z,101135.53
2022-11-30T10:48:01.944Z,101140.09
2022-11-30T10:53:04.219Z,101131.72
2022-11-30T10:58:13.170Z,101133.03
2022-11-30T11:03:24.800Z,101127.78
2022-11-30T11:08:27.756Z,101131.16
2022-11-30T11:13:40.260Z,101136.16
2022-11-30T11:18:53.702Z,101137.94
2022-11-30T11:23:58.401Z,101125.78
2022-11-30T11:29:00.461Z,101122.47
2022-11-30T11:34:01.323Z,101122.34
2022-11-30T11:39:03.722Z,101116.81
2022-11-30T11:44:07.380Z,101111.69
2022-11-30T11:49:21.425Z,101124.47
2022-11-30T11:54:27.146Z,101123.59
2022-11-30T11:59:40.246Z,101117.53
2022-11-30T12:04:46.668Z,101116.59
2022-11-30T12:09:58.259Z,101118.25
2022-11-30T12:14:59.195Z,101121.75
2022-11-30T12:20:11.677Z,101120.91
2022-11-30T12:25:25.338Z,101121.94
2022-11-30T12:30:33.211Z,101115.09
2022-11-30T12:35:41.038Z,101123.53
2022-11-30T12:40:53.035Z,101119.25
2022-11-30T12:46:00.765Z,101122.63
2022-11-30T12:51:12.864Z,101125.94
2022-11-30T12:56:27.930Z,101121.00
2022-11-30T13:01:44.274Z,101120.50
2022-11-30T13:06:49.727Z,101117.91
2022-11-30T13:11:57.647Z,101130.69
2022-11-30T13:17:03.387Z,101125.44
2022-11-30T13:22:11.140Z,101124.72
2022-11-30T13:27:19.510Z,101111.88
2022-11-30T13:32:56.767Z,101132.59
2022-11-30T13:37:41.728Z,101125.44
2022-11-30T13:42:51.307Z,101135.00
2022-11-30T13:47:58.750Z,101131.47
2022-11-30T13:53:25.357Z,101123.81
2022-11-30T13:58:28.497Z,101141.03
2022-11-30T14:03:31.445Z,101148.56
2022-11-30T14:08:35.578Z,101152.78
2022-11-30T14:13:37.742Z,101152.78
2022-11-30T14:18:43.831Z,101150.03
2022-11-30T14:23:51.320Z,101158.69
2022-11-30T14:29:01.913Z,101151.75
2022-11-30T14:34:07.738Z,101160.31
2022-11-30T14:39:27.630Z,101154.97
2022-11-30T14:44:35.503Z,101161.16
2022-11-30T14:49:36.331Z,101149.88
2022-11-30T14:54:46.699Z,101148.09
2022-11-30T14:59:52.276Z,101155.69
2022-11-30T15:04:55.979Z,101156.75
2022-11-30T15:10:04.742Z,101157.66
2022-11-30T15:15:15.361Z,101169.69
2022-11-30T15:20:25.921Z,101171.44
2022-11-30T15:25:32.823Z,101174.97
2022-11-30T15:30:39.620Z,101167.97
2022-11-30T15:36:13.806Z,101175.63
2022-11-30T15:41:19.876Z,101181.63
2022-11-30T15:46:34.445Z,101173.94
2022-11-30T15:51:39.211Z,101165.28
2022-11-30T15:56:40.072Z,101179.25
2022-11-30T16:02:04.804Z,101175.72
2022-11-30T16:07:05.802Z,101175.69
2022-11-30T16:12:25.974Z,101176.56
2022-11-30T16:17:30.169Z,101177.31
2022-11-30T16:22:31.008Z,101182.66
2022-11-30T16:27:31.809Z,101178.31
2022-11-30T16:32:34.018Z,101175.72
2022-11-30T16:37:34.805Z,101181.75
2022-11-30T16:42:35.592Z,101183.56
2022-11-30T16:47:37.794Z,101185.16
2022-11-30T16:52:38.721Z,101178.19
2022-11-30T16:57:39.509Z,101188.59
2022-11-30T17:02:46.090Z,101185.91
2022-11-30T17:07:46.969Z,101193.63
2022-11-30T17:12:48.104Z,101202.25
2022-11-30T17:17:50.290Z,101204.97
2022-11-30T17:22:51.135Z,101202.41
2022-11-30T17:27:52.293Z,101207.63
2022-11-30T17:32:54.574Z,101199.94
2022-11-30T17:37:55.565Z,101205.91
2022-11-30T17:42:56.372Z,101218.00
2022-11-30T17:47:58.527Z,101223.06
2022-11-30T17:52:59.477Z,101233.41
2022-11-30T17:58:00.376Z,101232.41
2022-11-30T18:03:02.691Z,101241.69
2022-11-30T18:08:03.649Z,101235.31
2022-11-30T18:13:04.503Z,101243.84
2022-11-30T18:18:06.895Z,101245.47
2022-11-30T18:23:07.682Z,101247.88
2022-11-30T18:28:08.509Z,101258.47
2022-11-30T18:33:10.750Z,101246.19
2022-11-30T18:38:11.569Z,101263.03
2022-11-30T18:43:12.363Z,101275.84
2022-11-30T18:48:14.606Z,101277.06
2022-11-30T18:53:18.469Z,101283.22
2022-11-30T18:58:19.492Z,101286.66
2022-11-30T19:03:21.650Z,101288.41
2022-11-30T19:08:22.481Z,101303.41
2022-11-30T19:13:23.381Z,101292.06
2022-11-30T19:18:25.591Z,101298.88
2022-11-30T19:23:26.676Z,101295.50
2022-11-30T19:28:30.101Z,101301.06
2022-11-30T19:33:32.330Z,101302.56
2022-11-30T19:38:33.162Z,101298.94
2022-11-30T19:43:34.264Z,101301.97
2022-11-30T19:48:39.029Z,101310.22
2022-11-30T19:53:40.942Z,101314.38
2022-11-30T19:58:42.411Z,101315.09
2022-11-30T20:03:45.033Z,101320.41
2022-11-30T20:08:46.050Z,101328.63
2022-11-30T20:13:46.961Z,101327.81
2022-11-30T20:18:55.905Z,101340.25
2022-11-30T20:23:59.268Z,101348.03
2022-11-30T20:29:01.782Z,101339.63
2022-11-30T20:34:04.079Z,101353.00
2022-11-30T20:39:05.690Z,101357.06
2022-11-30T20:44:06.674Z,101352.66
2022-11-30T20:49:17.451Z,101356.47
2022-11-30T20:54:18.647Z,101360.22
2022-11-30T20:59:23.634Z,101367.66
2022-11-30T21:04:26.796Z,101367.09
2022-11-30T21:09:27.715Z,101360.88
2022-11-30T21:14:28.552Z,101369.63
2022-11-30T21:19:30.707Z,101379.66
2022-11-30T21:24:31.617Z,101383.31
2022-11-30T21:29:32.411Z,101378.00
2022-11-30T21:34:34.588Z,101391.09
2022-11-30T21:39:36.328Z,101380.53
2022-11-30T21:44:37.123Z,101383.63
2022-11-30T21:49:39.224Z,101386.16
2022-11-30T21:54:39.993Z,101386.00
2022-11-30T21:59:40.836Z,101390.19
2022-11-30T22:04:43.351Z,101393.53
2022-11-30T22:09:44.161Z,101394.03
2022-11-30T22:14:44.940Z,101395.88
2022-11-30T22:19:47.394Z,101400.75
2022-11-30T22:24:48.973Z,101391.66
2022-11-30T22:29:50.912Z,101405.94
2022-11-30T22:34:53.036Z,101391.09
2022-11-30T22:39:53.855Z,101396.03
2022-11-30T22:44:54.639Z,101393.19
2022-11-30T22:49:56.815Z,101396.03
2022-11-30T22:54:57.652Z,101401.53
2022-11-30T22:59:58.505Z,101404.25
2022-11-30T23:05:00.734Z,101413.03
2022-11-30T23:10:01.543Z,101401.06
2022-11-30T23:15:02.356Z,101398.78
2022-11-30T23:20:04.808Z,101395.28
2022-11-30T23:25:06.153Z,101397.03
2022-11-30T23:30:09.204Z,101391.84
2022-11-30T23:35:11.576Z,101391.84
2022-11-30T23:40:13.423Z,101394.75
2022-11-30T23:45:14.266Z,101376.81
2022-11-30T23:50:16.533Z,101384.72
2022-11-30T23:55:17.458Z,101380.44
